createdAt,value
2022-09-25T00:01:27.859Z,5.80
2022-09-25T00:03:56.048Z,5.22
2022-09-25T00:06:26.007Z,5.35
2022-09-25T00:08:54.818Z,5.43
2022-09-25T00:11:25.099Z,5.45
2022-09-25T00:13:53.522Z,5.20
2022-09-25T00:16:23.713Z,5.03
2022-09-25T00:19:25.306Z,5.20
2022-09-25T00:21:53.766Z,5.00
2022-09-25T00:24:22.474Z,5.32
2022-09-25T00:26:51.235Z,4.90
2022-09-25T00:29:21.555Z,4.88
2022-09-25T00:31:49.881Z,5.00
2022-09-25T00:34:19.443Z,4.68
2022-09-25T00:36:47.689Z,4.60
2022-09-25T00:39:15.892Z,4.50
2022-09-25T00:41:44.192Z,4.70
2022-09-25T00:44:53.263Z,4.60
2022-09-25T00:47:24.599Z,4.72
2022-09-25T00:49:55.438Z,4.70
2022-09-25T00:52:26.479Z,3.97
2022-09-25T00:54:58.120Z,4.15
2022-09-25T00:59:59.956Z,4.10
2022-09-25T01:02:30.554Z,4.20
2022-09-25T01:05:05.377Z,4.20
2022-09-25T01:07:35.234Z,4.10
2022-09-25T01:10:04.785Z,4.10
2022-09-25T01:12:33.682Z,3.88
2022-09-25T01:15:01.900Z,4.00
2022-09-25T01:17:36.861Z,3.88
2022-09-25T01:20:17.115Z,3.70
2022-09-25T01:22:58.324Z,3.30
2022-09-25T01:25:36.958Z,3.72
2022-09-25T01:28:21.283Z,3.72
2022-09-25T01:30:56.923Z,3.67
2022-09-25T01:33:32.561Z,3.38
2022-09-25T01:36:03.974Z,3.25
2022-09-25T01:38:38.205Z,3.10
2022-09-25T01:41:12.774Z,3.25
2022-09-25T01:43:45.311Z,3.15
2022-09-25T01:46:18.312Z,3.10
2022-09-25T01:48:49.996Z,3.40
2022-09-25T01:53:53.632Z,3.00
2022-09-25T01:56:33.132Z,3.10
2022-09-25T01:59:06.349Z,3.60
2022-09-25T02:01:40.805Z,3.20
2022-09-25T02:04:12.885Z,3.70
2022-09-25T02:06:44.936Z,3.10
2022-09-25T02:09:17.568Z,3.35
2022-09-25T02:11:52.353Z,3.42
2022-09-25T02:14:23.542Z,3.65
2022-09-25T02:16:59.147Z,3.45
2022-09-25T02:19:45.346Z,3.58
2022-09-25T02:22:20.142Z,3.28
2022-09-25T02:24:58.437Z,3.22
2022-09-25T02:27:28.735Z,3.65
2022-09-25T02:29:58.316Z,3.40
2022-09-25T02:32:31.425Z,3.20
2022-09-25T02:35:00.948Z,3.45
2022-09-25T02:37:29.695Z,3.67
2022-09-25T02:40:02.153Z,3.20
2022-09-25T02:42:39.667Z,3.28
2022-09-25T02:45:26.876Z,3.20
2022-09-25T02:48:08.785Z,3.22
2022-09-25T02:50:46.159Z,3.00
2022-09-25T02:53:19.777Z,3.33
2022-09-25T02:55:53.532Z,3.28
2022-09-25T02:58:27.471Z,3.40
2022-09-25T03:00:58.457Z,3.17
2022-09-25T03:03:29.318Z,2.97
2022-09-25T03:05:58.981Z,2.87
2022-09-25T03:08:41.954Z,2.83
2022-09-25T03:11:12.463Z,2.70
2022-09-25T03:13:41.890Z,2.55
2022-09-25T03:16:15.819Z,2.45
2022-09-25T03:18:46.519Z,2.67
2022-09-25T03:21:14.931Z,2.57
2022-09-25T03:23:43.134Z,2.70
2022-09-25T03:26:11.610Z,2.40
2022-09-25T03:28:40.081Z,2.50
2022-09-25T03:31:11.576Z,2.40
2022-09-25T03:36:13.043Z,2.50
2022-09-25T03:38:42.345Z,2.88
2022-09-25T03:41:11.882Z,2.50
2022-09-25T03:43:41.445Z,3.08
2022-09-25T03:46:12.233Z,2.85
2022-09-25T03:48:41.398Z,2.90
2022-09-25T03:51:11.913Z,3.13
2022-09-25T03:53:40.430Z,2.90
2022-09-25T03:56:12.216Z,2.85
2022-09-25T03:58:41.041Z,3.05
2022-09-25T04:01:11.121Z,2.75
2022-09-25T04:03:40.522Z,2.90
2022-09-25T04:06:11.146Z,2.65
2022-09-25T04:08:39.678Z,2.55
2022-09-25T04:11:08.220Z,2.50
2022-09-25T04:13:37.588Z,2.70
2022-09-25T04:16:08.304Z,2.50
2022-09-25T04:18:37.086Z,2.75
2022-09-25T04:21:08.330Z,2.53
2022-09-25T04:23:38.923Z,2.55
2022-09-25T04:26:07.877Z,2.35
2022-09-25T04:28:36.382Z,2.60
2022-09-25T04:31:05.266Z,2.40
2022-09-25T04:33:48.055Z,2.80
2022-09-25T04:36:16.963Z,2.67
2022-09-25T04:38:47.190Z,2.65
2022-09-25T04:41:16.260Z,2.47
2022-09-25T04:43:44.589Z,2.60
2022-09-25T04:46:20.006Z,2.67
2022-09-25T04:48:49.918Z,2.75
2022-09-25T04:51:18.088Z,2.78
2022-09-25T04:53:47.653Z,2.88
2022-09-25T04:56:16.795Z,3.00
2022-09-25T04:58:47.477Z,2.70
2022-09-25T05:01:16.666Z,2.72
2022-09-25T05:03:44.950Z,2.45
2022-09-25T05:06:13.158Z,2.70
2022-09-25T05:08:41.323Z,2.88
2022-09-25T05:11:11.459Z,2.65
2022-09-25T05:13:40.076Z,2.75
2022-09-25T05:16:08.840Z,2.45
2022-09-25T05:18:37.100Z,2.60
2022-09-25T05:21:06.420Z,2.55
2022-09-25T05:23:34.566Z,2.53
2022-09-25T05:26:02.989Z,2.70
2022-09-25T05:28:33.869Z,2.58
2022-09-25T05:31:03.723Z,2.70
2022-09-25T05:33:32.250Z,3.13
2022-09-25T05:36:02.777Z,3.13
2022-09-25T05:38:33.109Z,3.22
2022-09-25T05:41:04.988Z,3.20
2022-09-25T05:43:36.182Z,3.03
2022-09-25T05:46:04.448Z,2.88
2022-09-25T05:48:32.763Z,2.80
2022-09-25T05:51:01.117Z,3.00
2022-09-25T05:53:30.643Z,3.00
2022-09-25T05:56:00.392Z,2.95
2022-09-25T05:58:29.754Z,3.08
2022-09-25T06:01:01.974Z,3.00
2022-09-25T06:03:30.346Z,3.28
2022-09-25T06:05:59.137Z,2.95
2022-09-25T06:08:29.041Z,3.05
2022-09-25T06:10:57.259Z,3.00
2022-09-25T06:13:26.467Z,3.25
2022-09-25T06:15:54.936Z,3.25
2022-09-25T06:18:26.145Z,3.30
2022-09-25T06:21:01.268Z,3.15
2022-09-25T06:23:29.477Z,3.20
2022-09-25T06:26:01.701Z,3.10
2022-09-25T06:28:31.063Z,3.30
2022-09-25T06:31:01.821Z,3.28
2022-09-25T06:33:32.061Z,3.00
2022-09-25T06:36:00.753Z,2.80
2022-09-25T06:38:29.186Z,2.90
2022-09-25T06:41:00.384Z,2.80
2022-09-25T06:46:02.468Z,2.83
2022-09-25T06:48:32.536Z,3.05
2022-09-25T06:51:02.113Z,3.40
2022-09-25T06:53:30.561Z,3.03
2022-09-25T06:56:00.026Z,3.30
2022-09-25T06:58:30.292Z,3.45
2022-09-25T07:00:58.988Z,3.03
2022-09-25T07:03:44.749Z,3.28
2022-09-25T07:06:15.885Z,3.10
2022-09-25T07:08:45.033Z,3.00
2022-09-25T07:11:14.801Z,3.10
2022-09-25T07:13:43.008Z,3.63
2022-09-25T07:16:14.670Z,3.83
2022-09-25T07:18:43.982Z,3.20
2022-09-25T07:21:15.367Z,2.75
2022-09-25T07:23:44.090Z,2.47
2022-09-25T07:26:14.247Z,2.70
2022-09-25T07:28:44.556Z,2.70
2022-09-25T07:31:18.245Z,2.47
2022-09-25T07:33:47.093Z,2.70
2022-09-25T07:36:18.126Z,2.45
2022-09-25T07:38:50.575Z,3.00
2022-09-25T07:41:19.686Z,3.00
2022-09-25T07:43:48.016Z,3.05
2022-09-25T07:46:16.324Z,2.85
2022-09-25T07:48:44.594Z,2.85
2022-09-25T07:51:13.406Z,3.50
2022-09-25T07:53:43.638Z,3.50
2022-09-25T07:56:12.881Z,3.35
2022-09-25T07:58:41.729Z,3.95
2022-09-25T08:01:13.526Z,4.22
2022-09-25T08:03:41.788Z,4.47
2022-09-25T08:06:11.929Z,4.40
2022-09-25T08:08:42.494Z,4.70
2022-09-25T08:11:12.516Z,4.85
2022-09-25T08:13:41.424Z,5.10
2022-09-25T08:16:13.497Z,5.13
2022-09-25T08:18:42.871Z,5.53
2022-09-25T08:21:14.263Z,6.95
2022-09-25T08:23:48.190Z,7.00
2022-09-25T08:26:17.116Z,6.97
2022-09-25T08:28:45.494Z,7.53
2022-09-25T08:31:14.838Z,6.55
2022-09-25T08:33:46.788Z,7.50
2022-09-25T08:36:16.216Z,7.85
2022-09-25T08:38:46.859Z,8.30
2022-09-25T08:41:19.311Z,8.20
2022-09-25T08:43:58.481Z,9.00
2022-09-25T08:46:53.050Z,8.77
2022-09-25T08:49:25.137Z,9.52
2022-09-25T08:51:57.962Z,9.60
2022-09-25T08:54:29.332Z,9.45
2022-09-25T08:57:01.449Z,18.52
2022-09-25T08:59:33.033Z,33.00
2022-09-25T09:04:33.351Z,47.70
2022-09-25T09:07:25.695Z,28.92
2022-09-25T09:10:01.983Z,17.20
2022-09-25T09:12:37.514Z,16.77
2022-09-25T09:15:19.352Z,19.80
2022-09-25T09:17:47.502Z,13.15
2022-09-25T09:20:19.217Z,20.40
2022-09-25T09:22:51.633Z,21.63
2022-09-25T09:25:29.204Z,18.15
2022-09-25T09:28:30.275Z,39.50
2022-09-25T09:31:09.591Z,17.33
2022-09-25T09:33:50.620Z,21.80
2022-09-25T09:36:25.708Z,17.05
2022-09-25T09:39:00.240Z,16.63
2022-09-25T09:41:41.921Z,12.60
2022-09-25T09:46:52.446Z,13.40
2022-09-25T09:49:27.195Z,11.48
2022-09-25T09:51:59.456Z,15.90
2022-09-25T09:54:32.923Z,13.70
2022-09-25T09:57:04.255Z,19.98
2022-09-25T09:59:43.407Z,21.02
2022-09-25T10:02:21.903Z,18.13
2022-09-25T10:04:52.901Z,11.30
2022-09-25T10:07:23.793Z,10.15
2022-09-25T10:09:52.092Z,10.23
2022-09-25T10:12:29.049Z,13.38
2022-09-25T10:14:58.733Z,11.63
2022-09-25T10:17:29.330Z,9.70
2022-09-25T10:20:00.965Z,14.23
2022-09-25T10:22:35.024Z,12.43
2022-09-25T10:25:03.484Z,10.68
2022-09-25T10:27:36.030Z,13.95
2022-09-25T10:30:20.545Z,9.15
2022-09-25T10:32:58.941Z,11.30
2022-09-25T10:35:30.621Z,7.63
2022-09-25T10:38:01.907Z,7.18
2022-09-25T10:40:33.511Z,7.00
2022-09-25T10:43:16.457Z,6.18
2022-09-25T10:45:45.460Z,6.70
2022-09-25T10:48:49.530Z,6.90
2022-09-25T10:51:21.234Z,6.53
2022-09-25T10:53:50.775Z,6.35
2022-09-25T10:56:27.154Z,5.60
2022-09-25T10:59:01.772Z,6.03
2022-09-25T11:01:35.972Z,6.63
2022-09-25T11:04:13.030Z,5.88
2022-09-25T11:06:46.497Z,6.22
2022-09-25T11:09:17.429Z,5.50
2022-09-25T11:11:47.250Z,6.15
2022-09-25T11:14:32.888Z,5.93
2022-09-25T11:17:05.935Z,6.40
2022-09-25T11:19:36.210Z,6.03
2022-09-25T11:22:19.682Z,6.13
2022-09-25T11:25:01.511Z,5.53
2022-09-25T11:27:36.333Z,5.28
2022-09-25T11:30:08.269Z,5.70
2022-09-25T11:32:51.642Z,5.22
2022-09-25T11:35:37.777Z,4.95
2022-09-25T11:38:16.075Z,4.95
2022-09-25T11:41:10.938Z,5.40
2022-09-25T11:43:52.057Z,5.25
2022-09-25T11:46:33.960Z,5.35
2022-09-25T11:49:12.779Z,4.63
2022-09-25T11:52:17.349Z,4.55
2022-09-25T11:55:11.102Z,4.35
2022-09-25T11:57:49.609Z,4.28
2022-09-25T12:00:22.065Z,4.15
2022-09-25T12:03:07.938Z,4.47
2022-09-25T12:05:50.536Z,4.28
2022-09-25T12:08:29.804Z,4.70
2022-09-25T12:11:06.486Z,5.00
2022-09-25T12:13:44.768Z,4.78
2022-09-25T12:16:22.551Z,4.75
2022-09-25T12:19:06.298Z,5.55
2022-09-25T12:21:41.550Z,5.63
2022-09-25T12:24:19.542Z,6.20
2022-09-25T12:26:54.435Z,6.95
2022-09-25T12:29:47.397Z,6.72
2022-09-25T12:32:25.433Z,7.25
2022-09-25T12:35:11.096Z,7.18
2022-09-25T12:37:44.084Z,7.70
2022-09-25T12:40:22.129Z,7.75
2022-09-25T12:42:56.958Z,7.40
2022-09-25T12:45:33.186Z,8.07
2022-09-25T12:48:13.723Z,7.65
2022-09-25T12:50:51.205Z,7.88
2022-09-25T12:53:33.948Z,8.13
2022-09-25T12:56:13.959Z,7.85
2022-09-25T12:58:57.484Z,8.40
2022-09-25T13:01:31.322Z,8.13
2022-09-25T13:04:44.393Z,8.45
2022-09-25T13:07:23.618Z,8.43
2022-09-25T13:09:51.906Z,8.15
2022-09-25T13:12:28.875Z,8.60
2022-09-25T13:15:00.941Z,8.60
2022-09-25T13:17:29.337Z,7.88
2022-09-25T13:20:37.664Z,8.50
2022-09-25T13:23:12.941Z,8.40
2022-09-25T13:25:44.395Z,7.57
2022-09-25T13:31:05.467Z,7.25
2022-09-25T13:33:50.245Z,7.82
2022-09-25T13:36:49.665Z,7.55
2022-09-25T13:39:44.986Z,7.78
2022-09-25T13:42:22.543Z,7.07
2022-09-25T13:44:58.101Z,7.47
2022-09-25T13:48:06.109Z,6.93
2022-09-25T13:50:41.175Z,7.40
2022-09-25T13:53:25.892Z,7.13
2022-09-25T13:56:22.657Z,7.22
2022-09-25T13:59:23.485Z,7.20
2022-09-25T14:01:55.061Z,7.20
2022-09-25T14:04:38.197Z,6.93
2022-09-25T14:07:25.688Z,6.90
2022-09-25T14:09:57.539Z,7.30
2022-09-25T14:12:35.033Z,7.00
2022-09-25T14:15:07.509Z,6.63
2022-09-25T14:17:37.171Z,6.75
2022-09-25T14:20:11.223Z,7.50
2022-09-25T14:22:44.535Z,7.45
2022-09-25T14:25:28.711Z,7.32
2022-09-25T14:27:58.449Z,7.53
2022-09-25T14:30:29.346Z,7.13
2022-09-25T14:33:42.561Z,6.97
2022-09-25T14:36:22.806Z,7.20
2022-09-25T14:39:20.050Z,6.80
2022-09-25T14:42:25.144Z,5.30
2022-09-25T14:45:34.329Z,5.45
2022-09-25T14:48:06.066Z,4.60
2022-09-25T14:50:38.694Z,5.00
2022-09-25T14:53:18.081Z,4.38
2022-09-25T14:55:51.243Z,4.22
2022-09-25T14:58:22.894Z,3.90
2022-09-25T15:00:56.407Z,3.90
2022-09-25T15:03:29.609Z,3.70
2022-09-25T15:06:00.608Z,3.63
2022-09-25T15:08:35.901Z,4.07
2022-09-25T15:11:10.286Z,4.05
2022-09-25T15:13:38.861Z,4.10
2022-09-25T15:16:31.480Z,3.80
2022-09-25T15:19:02.773Z,4.47
2022-09-25T15:21:33.767Z,4.40
2022-09-25T15:24:05.786Z,4.40
2022-09-25T15:26:35.407Z,4.82
2022-09-25T15:29:03.653Z,4.40
2022-09-25T15:31:38.411Z,4.07
2022-09-25T15:34:15.122Z,4.15
2022-09-25T15:36:43.373Z,4.38
2022-09-25T15:39:16.714Z,4.47
2022-09-25T15:41:45.754Z,4.95
2022-09-25T15:44:19.338Z,4.75
2022-09-25T15:46:52.011Z,4.80
2022-09-25T15:49:25.430Z,4.70
2022-09-25T15:51:58.290Z,4.70
2022-09-25T15:54:39.563Z,4.72
2022-09-25T15:57:13.349Z,4.65
2022-09-25T15:59:58.057Z,4.53
2022-09-25T16:02:51.235Z,4.70
2022-09-25T16:05:24.927Z,4.55
2022-09-25T16:07:56.249Z,4.40
2022-09-25T16:10:33.248Z,4.90
2022-09-25T16:13:02.726Z,4.18
2022-09-25T16:15:47.935Z,4.72
2022-09-25T16:18:34.530Z,4.55
2022-09-25T16:21:23.725Z,4.60
2022-09-25T16:23:57.990Z,5.03
2022-09-25T16:26:33.442Z,6.85
2022-09-25T16:29:10.037Z,7.00
2022-09-25T16:31:39.304Z,7.38
2022-09-25T16:34:18.633Z,6.50
2022-09-25T16:36:51.475Z,6.63
2022-09-25T16:39:26.689Z,6.00
2022-09-25T16:41:55.234Z,6.15
2022-09-25T16:44:37.054Z,6.45
2022-09-25T16:47:18.894Z,6.88
2022-09-25T16:49:48.929Z,7.35
2022-09-25T16:52:22.305Z,7.90
2022-09-25T16:54:54.237Z,7.82
2022-09-25T16:57:23.352Z,9.90
2022-09-25T16:59:51.916Z,9.98
2022-09-25T17:02:33.398Z,9.73
2022-09-25T17:05:05.489Z,9.75
2022-09-25T17:07:33.705Z,9.40
2022-09-25T17:10:02.422Z,9.15
2022-09-25T17:12:32.540Z,9.00
2022-09-25T17:15:01.043Z,7.50
2022-09-25T17:17:31.053Z,7.95
2022-09-25T17:19:59.470Z,8.15
2022-09-25T17:22:31.071Z,10.02
2022-09-25T17:27:28.953Z,6.30
2022-09-25T17:29:57.173Z,5.28
2022-09-25T17:32:26.453Z,5.57
2022-09-25T17:34:57.603Z,5.55
2022-09-25T17:37:25.870Z,3.50
2022-09-25T17:39:56.181Z,3.03
2022-09-25T17:42:26.458Z,3.08
2022-09-25T17:44:55.037Z,3.22
2022-09-25T17:47:23.640Z,3.20
2022-09-25T17:49:51.884Z,3.10
2022-09-25T17:52:22.131Z,3.10
2022-09-25T17:54:50.465Z,3.10
2022-09-25T17:57:20.163Z,3.20
2022-09-25T17:59:48.597Z,3.00
2022-09-25T18:02:18.113Z,3.10
2022-09-25T18:04:46.470Z,3.10
2022-09-25T18:07:15.529Z,2.95
2022-09-25T18:09:43.831Z,2.80
2022-09-25T18:12:12.055Z,2.80
2022-09-25T18:14:42.017Z,2.80
2022-09-25T18:17:10.420Z,3.03
2022-09-25T18:19:56.142Z,2.97
2022-09-25T18:22:25.707Z,2.90
2022-09-25T18:24:56.591Z,2.83
2022-09-25T18:27:26.774Z,3.08
2022-09-25T18:29:57.723Z,3.25
2022-09-25T18:32:25.986Z,3.28
2022-09-25T18:34:54.333Z,3.40
2022-09-25T18:37:22.570Z,10.93
2022-09-25T18:39:51.295Z,10.82
2022-09-25T18:42:19.826Z,8.38
2022-09-25T18:44:48.454Z,4.72
2022-09-25T18:47:18.092Z,4.60
2022-09-25T18:49:46.308Z,5.00
2022-09-25T18:52:15.185Z,4.15
2022-09-25T18:54:43.508Z,3.78
2022-09-25T18:57:12.164Z,4.15
2022-09-25T18:59:41.053Z,4.80
2022-09-25T19:02:25.912Z,5.43
2022-09-25T19:04:56.032Z,4.32
2022-09-25T19:07:26.950Z,5.10
2022-09-25T19:09:56.601Z,7.15
2022-09-25T19:12:25.133Z,12.10
2022-09-25T19:14:53.427Z,6.32
2022-09-25T19:17:21.674Z,6.13
2022-09-25T19:19:51.250Z,6.20
2022-09-25T19:22:21.875Z,7.13
2022-09-25T19:24:52.687Z,7.95
2022-09-25T19:27:21.487Z,6.00
2022-09-25T19:29:49.761Z,6.97
2022-09-25T19:32:19.402Z,5.70
2022-09-25T19:34:47.609Z,5.15
2022-09-25T19:37:17.693Z,6.63
2022-09-25T19:40:03.653Z,6.80
2022-09-25T19:42:33.846Z,5.28
2022-09-25T19:45:02.186Z,4.60
2022-09-25T19:47:30.529Z,4.80
2022-09-25T19:49:58.813Z,4.93
2022-09-25T19:52:28.599Z,5.30
2022-09-25T19:54:56.797Z,5.10
2022-09-25T19:57:24.986Z,4.93
2022-09-25T19:59:53.193Z,4.43
2022-09-25T20:02:21.849Z,4.85
2022-09-25T20:04:50.092Z,4.18
2022-09-25T20:07:18.774Z,4.00
2022-09-25T20:09:48.317Z,4.20
2022-09-25T20:12:16.577Z,4.07
2022-09-25T20:14:44.715Z,3.70
2022-09-25T20:17:12.893Z,3.67
2022-09-25T20:19:41.214Z,3.90
2022-09-25T20:22:09.445Z,3.75
2022-09-25T20:24:37.676Z,3.67
2022-09-25T20:27:07.309Z,3.88
2022-09-25T20:29:35.583Z,3.90
2022-09-25T20:32:03.829Z,4.40
2022-09-25T20:34:32.141Z,3.85
2022-09-25T20:37:00.330Z,4.50
2022-09-25T20:39:28.556Z,4.80
2022-09-25T20:41:57.017Z,4.45
2022-09-25T20:44:26.632Z,4.32
2022-09-25T20:46:54.795Z,4.20
2022-09-25T20:49:23.101Z,4.13
2022-09-25T20:51:51.325Z,4.20
2022-09-25T20:54:19.530Z,4.68
2022-09-25T20:56:47.726Z,4.47
2022-09-25T20:59:17.892Z,4.57
2022-09-25T21:01:47.949Z,4.38
2022-09-25T21:04:18.254Z,4.43
2022-09-25T21:06:46.528Z,4.82
2022-09-25T21:09:20.130Z,4.32
2022-09-25T21:11:48.888Z,4.30
2022-09-25T21:14:19.651Z,4.63
2022-09-25T21:16:51.002Z,4.60
2022-09-25T21:19:21.726Z,4.40
2022-09-25T21:21:50.319Z,4.50
2022-09-25T21:24:21.067Z,4.78
2022-09-25T21:26:49.835Z,4.40
2022-09-25T21:29:18.745Z,4.70
2022-09-25T21:31:50.715Z,4.57
2022-09-25T21:34:20.520Z,4.95
2022-09-25T21:36:49.344Z,4.60
2022-09-25T21:39:19.102Z,4.43
2022-09-25T21:41:48.956Z,4.72
2022-09-25T21:44:19.220Z,4.80
2022-09-25T21:46:48.799Z,4.82
2022-09-25T21:49:18.665Z,4.97
2022-09-25T21:51:48.150Z,5.20
2022-09-25T21:54:17.268Z,4.97
2022-09-25T21:56:45.722Z,5.30
2022-09-25T21:59:14.321Z,5.30
2022-09-25T22:01:43.132Z,5.20
2022-09-25T22:04:14.775Z,5.88
2022-09-25T22:09:13.837Z,5.40
2022-09-25T22:11:42.827Z,5.13
2022-09-25T22:14:15.676Z,5.40
2022-09-25T22:16:46.242Z,5.32
2022-09-25T22:19:17.876Z,4.80
2022-09-25T22:21:47.865Z,4.93
2022-09-25T22:24:16.837Z,4.50
2022-09-25T22:26:47.477Z,4.93
2022-09-25T22:29:16.575Z,4.13
2022-09-25T22:31:44.818Z,4.22
2022-09-25T22:34:19.104Z,4.20
2022-09-25T22:36:47.525Z,3.97
2022-09-25T22:39:17.508Z,3.90
2022-09-25T22:41:46.275Z,4.20
2022-09-25T22:44:14.657Z,4.15
2022-09-25T22:46:42.938Z,4.10
2022-09-25T22:49:11.170Z,3.95
2022-09-25T22:51:40.918Z,4.07
2022-09-25T22:54:09.101Z,3.90
2022-09-25T22:56:37.579Z,4.40
2022-09-25T22:59:08.256Z,4.25
2022-09-25T23:01:38.453Z,3.97
2022-09-25T23:04:09.297Z,4.25
2022-09-25T23:06:37.921Z,4.30
2022-09-25T23:09:09.391Z,4.00
2022-09-25T23:11:37.614Z,4.15
2022-09-25T23:14:07.867Z,3.92
2022-09-25T23:16:36.652Z,4.70
2022-09-25T23:19:05.298Z,4.25
2022-09-25T23:21:33.845Z,4.18
2022-09-25T23:24:03.993Z,4.30
2022-09-25T23:26:33.859Z,3.83
2022-09-25T23:29:02.830Z,4.05
2022-09-25T23:31:32.799Z,4.15
2022-09-25T23:34:01.790Z,4.25
2022-09-25T23:36:31.072Z,4.15
2022-09-25T23:39:01.750Z,3.85
2022-09-25T23:41:31.731Z,3.97
2022-09-25T23:44:03.411Z,3.80
2022-09-25T23:49:01.624Z,3.60
2022-09-25T23:51:30.402Z,3.60
2022-09-25T23:54:00.711Z,3.75
2022-09-25T23:56:31.092Z,3.35
2022-09-25T23:59:02.242Z,3.80
